Time;durP1;ratioP1;P1;durP2;ratioP2;P2;SDS_P1;SDS_P2;PMS_P1;PMS_P2;Temp;Humidity;BMP_temperature;BMP_pressure;BME280_temperature;BME280_humidity;BME280_pressure;Samples;Min_cycle;Max_cycle;Signal;HPM_P1;HPM_P2
2023/12/23 00:01:47;;;;;;;;;;;4.80;99.90;;;;;;5030917;28;19936;-87
2023/12/23 00:04:12;;;;;;;;;;;4.90;99.90;;;;;;5044001;28;19925;-84
2023/12/23 00:06:39;;;;;;;;;;;4.80;99.90;;;;;;5031459;28;20003;-86
2023/12/23 00:09:05;;;;;;;;;;;4.80;99.90;;;;;;5048384;28;20242;-85
2023/12/23 00:11:30;;;;;;;;;;;4.70;99.90;;;;;;5037650;28;19930;-86
2023/12/23 00:13:56;;;;;;;;;;;4.70;99.90;;;;;;5045538;28;19925;-85
2023/12/23 00:16:24;;;;;;;;;;;4.70;99.90;;;;;;5021363;28;20382;-86
2023/12/23 00:18:49;;;;;;;;;;;4.70;99.90;;;;;;5030733;28;20300;-85
2023/12/23 00:21:15;;;;;;;;;;;4.60;99.90;;;;;;5023248;28;19935;-86
2023/12/23 00:23:40;;;;;;;;;;;4.50;99.90;;;;;;5046204;28;19978;-85
2023/12/23 00:26:06;;;;;;;;;;;4.60;99.90;;;;;;5050732;28;19920;-86
2023/12/23 00:28:32;;;;;;;;;;;4.50;99.90;;;;;;5019615;28;19925;-85
2023/12/23 00:30:57;;;;;;;;;;;4.50;99.90;;;;;;5011554;28;19920;-86
2023/12/23 00:33:23;;;;;;;;;;;4.50;99.90;;;;;;5028009;28;19932;-88
2023/12/23 00:35:48;;;;;;;;;;;4.50;99.90;;;;;;5024616;28;19935;-85
2023/12/23 00:38:14;;;;;;;;;;;4.60;99.90;;;;;;5027519;28;20022;-86
2023/12/23 00:40:40;;;;;;;;;;;4.60;99.90;;;;;;5063750;28;19925;-84
2023/12/23 00:43:05;;;;;;;;;;;4.60;99.90;;;;;;5024019;28;19928;-84
2023/12/23 00:45:31;;;;;;;;;;;4.70;99.90;;;;;;5064151;28;19920;-86
2023/12/23 00:47:56;;;;;;;;;;;4.60;99.90;;;;;;5038327;28;20066;-84
2023/12/23 00:50:22;;;;;;;;;;;4.60;99.90;;;;;;5035012;28;20011;-86
2023/12/23 00:52:48;;;;;;;;;;;4.60;99.90;;;;;;5060250;28;20462;-86
2023/12/23 00:55:14;;;;;;;;;;;3.10;99.90;;;;;;5079076;28;19928;-85
2023/12/23 00:57:40;;;;;;;;;;;4.60;99.90;;;;;;5038526;28;19921;-84
2023/12/23 01:00:06;;;;;;;;;;;4.60;99.90;;;;;;5022460;28;19920;-85
2023/12/23 01:02:32;;;;;;;;;;;4.50;99.90;;;;;;5019550;28;19931;-85
2023/12/23 01:04:57;;;;;;;;;;;4.60;99.90;;;;;;5009551;28;20380;-85
2023/12/23 01:07:23;;;;;;;;;;;4.60;99.90;;;;;;5044819;28;19920;-85
2023/12/23 01:09:48;;;;;;;;;;;4.50;99.90;;;;;;5043483;28;19975;-85
2023/12/23 01:12:14;;;;;;;;;;;4.50;99.90;;;;;;5038839;28;19931;-86
2023/12/23 01:14:39;;;;;;;;;;;4.60;99.90;;;;;;5046402;28;19931;-86
2023/12/23 01:17:05;;;;;;;;;;;4.60;99.90;;;;;;5024935;28;19968;-85
2023/12/23 01:19:30;;;;;;;;;;;4.60;99.90;;;;;;5061965;28;19921;-86
2023/12/23 01:21:57;;;;;;;;;;;4.60;99.90;;;;;;5046778;28;19943;-85
2023/12/23 01:24:23;;;;;;;;;;;4.70;99.90;;;;;;5075316;28;19932;-85
2023/12/23 01:26:48;;;;;;;;;;;4.70;99.90;;;;;;5027179;28;20277;-84
2023/12/23 01:29:14;;;;;;;;;;;4.90;99.90;;;;;;5026567;28;19928;-85
2023/12/23 01:31:39;;;;;;;;;;;4.80;99.90;;;;;;5030618;28;20319;-86
2023/12/23 01:34:05;;;;;;;;;;;4.80;99.90;;;;;;5023694;28;19936;-84
2023/12/23 01:36:31;;;;;;;;;;;4.90;99.90;;;;;;5062096;28;19920;-85
2023/12/23 01:38:56;;;;;;;;;;;4.80;99.90;;;;;;5022996;28;19928;-86
2023/12/23 01:41:22;;;;;;;;;;;4.90;99.90;;;;;;5068496;28;19958;-85
2023/12/23 01:43:47;;;;;;;;;;;4.90;99.90;;;;;;5071192;28;19981;-84
2023/12/23 01:46:13;;;;;;;;;;;5.00;99.90;;;;;;5075413;28;19920;-87
2023/12/23 01:48:39;;;;;;;;;;;4.90;99.90;;;;;;5080592;28;20031;-84
2023/12/23 01:51:05;;;;;;;;;;;5.00;99.90;;;;;;5042766;28;20392;-85
2023/12/23 01:53:31;;;;;;;;;;;5.00;99.90;;;;;;5037437;28;19963;-86
2023/12/23 01:55:58;;;;;;;;;;;5.10;99.90;;;;;;5052592;28;19920;-85
2023/12/23 01:58:23;;;;;;;;;;;5.10;99.90;;;;;;5044116;28;19932;-84
2023/12/23 02:00:49;;;;;;;;;;;5.10;99.90;;;;;;5073310;28;19920;-84
2023/12/23 02:03:15;;;;;;;;;;;5.10;99.90;;;;;;5067117;28;20307;-85
2023/12/23 02:05:40;;;;;;;;;;;5.30;99.90;;;;;;5066625;28;20003;-85
2023/12/23 02:08:06;;;;;;;;;;;5.20;99.90;;;;;;5054943;28;19931;-84
2023/12/23 02:10:32;;;;;;;;;;;5.20;99.90;;;;;;5057274;28;19931;-86
2023/12/23 02:13:21;;;;;;;;;;;5.20;99.90;;;;;;5034210;28;20257;-85
2023/12/23 02:15:47;;;;;;;;;;;5.30;99.90;;;;;;5050831;28;19981;-84
2023/12/23 02:18:13;;;;;;;;;;;5.30;99.90;;;;;;5064070;28;20011;-84
2023/12/23 02:20:38;;;;;;;;;;;5.30;99.90;;;;;;5046308;28;19924;-84
2023/12/23 02:23:04;;;;;;;;;;;5.30;99.90;;;;;;5040816;28;19971;-86
2023/12/23 02:25:30;;;;;;;;;;;5.30;99.90;;;;;;5038042;28;20425;-83
2023/12/23 02:27:59;;;;;;;;;;;5.30;99.90;;;;;;5039067;28;19928;-85
2023/12/23 02:30:25;;;;;;;;;;;5.40;99.90;;;;;;5051287;28;20088;-86
2023/12/23 02:32:51;;;;;;;;;;;5.40;99.90;;;;;;5049220;28;20390;-83
2023/12/23 02:35:17;;;;;;;;;;;5.40;99.90;;;;;;5059901;28;19920;-86
2023/12/23 02:37:42;;;;;;;;;;;5.30;99.90;;;;;;5051757;28;19923;-85
2023/12/23 02:40:08;;;;;;;;;;;5.30;99.90;;;;;;5091526;28;20699;-82
2023/12/23 02:42:34;;;;;;;;;;;5.40;99.90;;;;;;5039761;28;20295;-85
2023/12/23 02:44:59;;;;;;;;;;;5.40;99.90;;;;;;5049871;28;20030;-86
2023/12/23 02:47:25;;;;;;;;;;;5.30;99.90;;;;;;5038664;28;19985;-85
2023/12/23 02:49:51;;;;;;;;;;;5.30;99.90;;;;;;5052415;28;19928;-87
2023/12/23 02:52:16;;;;;;;;;;;5.20;99.90;;;;;;5070895;28;19924;-84
2023/12/23 02:54:42;;;;;;;;;;;5.20;99.90;;;;;;5071499;28;19934;-85
2023/12/23 02:57:08;;;;;;;;;;;5.20;99.90;;;;;;5067749;28;20022;-85
2023/12/23 02:59:33;;;;;;;;;;;5.20;99.90;;;;;;5081598;28;20271;-86
2023/12/23 03:01:59;;;;;;;;;;;5.20;99.90;;;;;;5056161;28;19924;-83
2023/12/23 03:04:24;;;;;;;;;;;5.10;99.90;;;;;;5039165;28;19920;-85
2023/12/23 03:06:50;;;;;;;;;;;5.20;99.90;;;;;;5078199;28;19920;-85
2023/12/23 03:09:15;;;;;;;;;;;5.20;99.90;;;;;;5051262;28;19924;-84
2023/12/23 03:11:41;;;;;;;;;;;5.20;99.90;;;;;;5060673;28;20287;-84
2023/12/23 03:14:07;;;;;;;;;;;5.10;99.90;;;;;;5056325;28;19920;-85
2023/12/23 03:16:35;;;;;;;;;;;5.10;99.90;;;;;;5038817;28;19935;-84
2023/12/23 03:19:02;;;;;;;;;;;5.10;99.90;;;;;;5056716;28;19920;-86
2023/12/23 03:21:28;;;;;;;;;;;5.00;99.90;;;;;;5047323;28;19994;-86
2023/12/23 03:23:53;;;;;;;;;;;5.00;99.90;;;;;;5054004;28;19959;-88
2023/12/23 03:26:19;;;;;;;;;;;4.90;99.90;;;;;;5074185;28;19931;-83
2023/12/23 03:28:45;;;;;;;;;;;4.90;99.90;;;;;;5055925;28;19920;-85
2023/12/23 03:31:10;;;;;;;;;;;4.90;99.90;;;;;;5036241;28;19927;-86
2023/12/23 03:33:36;;;;;;;;;;;5.00;99.90;;;;;;5084017;28;19920;-85
2023/12/23 03:36:01;;;;;;;;;;;4.90;99.90;;;;;;5047097;28;19951;-83
2023/12/23 03:38:28;;;;;;;;;;;5.00;99.90;;;;;;5039427;28;20007;-87
2023/12/23 03:40:53;;;;;;;;;;;4.90;99.90;;;;;;5024429;28;20037;-86
2023/12/23 03:43:19;;;;;;;;;;;4.90;99.90;;;;;;5061538;28;19931;-86
2023/12/23 03:45:45;;;;;;;;;;;4.90;99.90;;;;;;5040568;28;19966;-86
2023/12/23 03:48:11;;;;;;;;;;;4.90;99.90;;;;;;5052547;28;19921;-86
2023/12/23 03:50:36;;;;;;;;;;;4.80;99.90;;;;;;5024563;28;19974;-85
2023/12/23 03:53:02;;;;;;;;;;;4.80;99.90;;;;;;5035236;28;19924;-86
2023/12/23 03:55:32;;;;;;;;;;;4.80;99.90;;;;;;5040442;28;19931;-86
2023/12/23 03:57:58;;;;;;;;;;;5.00;99.90;;;;;;5050438;28;19921;-83
2023/12/23 04:00:25;;;;;;;;;;;4.80;99.90;;;;;;5036311;28;20014;-87
2023/12/23 04:02:51;;;;;;;;;;;4.80;99.90;;;;;;5063156;28;20034;-84
2023/12/23 04:05:16;;;;;;;;;;;4.90;99.90;;;;;;5032853;28;20296;-85
2023/12/23 04:07:42;;;;;;;;;;;4.80;99.90;;;;;;5040712;28;19936;-87
2023/12/23 04:10:08;;;;;;;;;;;4.80;99.90;;;;;;5031909;28;19940;-84
2023/12/23 04:12:33;;;;;;;;;;;4.80;99.90;;;;;;5026779;28;20081;-84
2023/12/23 04:14:59;;;;;;;;;;;4.70;99.90;;;;;;5051228;28;19978;-84
2023/12/23 04:17:24;;;;;;;;;;;4.80;99.90;;;;;;5015809;28;19920;-84
2023/12/23 04:19:50;;;;;;;;;;;4.70;99.90;;;;;;5023093;28;20356;-81
2023/12/23 04:22:16;;;;;;;;;;;4.80;99.90;;;;;;5018462;28;19964;-82
2023/12/23 04:24:42;;;;;;;;;;;4.80;99.90;;;;;;5034869;28;19942;-82
2023/12/23 04:27:08;;;;;;;;;;;4.60;99.90;;;;;;5033605;28;19935;-81
2023/12/23 04:29:33;;;;;;;;;;;4.60;99.90;;;;;;5034013;28;19928;-81
2023/12/23 04:31:59;;;;;;;;;;;4.70;99.90;;;;;;5019851;28;20409;-81
2023/12/23 04:34:25;;;;;;;;;;;4.60;99.90;;;;;;5050449;28;19924;-81
2023/12/23 04:36:50;;;;;;;;;;;4.60;99.90;;;;;;5034791;28;19924;-81
2023/12/23 04:39:16;;;;;;;;;;;4.60;99.90;;;;;;5049720;28;19946;-80
2023/12/23 04:41:47;;;;;;;;;;;4.60;99.90;;;;;;5032716;28;20511;-81
2023/12/23 04:44:13;;;;;;;;;;;4.70;99.90;;;;;;5013832;28;19924;-81
2023/12/23 04:46:39;;;;;;;;;;;4.60;99.90;;;;;;5019309;28;19932;-81
2023/12/23 04:49:04;;;;;;;;;;;4.60;99.90;;;;;;5013699;28;20265;-81
2023/12/23 04:51:30;;;;;;;;;;;4.50;99.90;;;;;;5015908;28;20510;-81
2023/12/23 04:53:56;;;;;;;;;;;4.60;99.90;;;;;;5019279;28;19938;-81
2023/12/23 04:56:22;;;;;;;;;;;4.60;99.90;;;;;;5021957;28;20352;-81
2023/12/23 04:58:48;;;;;;;;;;;4.60;99.90;;;;;;5065104;28;20441;-81
2023/12/23 05:01:13;;;;;;;;;;;4.50;99.90;;;;;;5037076;28;19932;-82
2023/12/23 05:03:40;;;;;;;;;;;4.50;99.90;;;;;;5035475;28;20004;-82
2023/12/23 05:06:06;;;;;;;;;;;4.40;99.90;;;;;;5036868;28;19920;-81
2023/12/23 05:08:32;;;;;;;;;;;4.40;99.90;;;;;;5020464;28;19933;-81
2023/12/23 05:10:58;;;;;;;;;;;4.40;99.90;;;;;;5035169;28;19935;-81
2023/12/23 05:13:24;;;;;;;;;;;4.50;99.90;;;;;;5033110;28;19931;-81
2023/12/23 05:15:50;;;;;;;;;;;4.40;99.90;;;;;;5021641;28;20389;-81
2023/12/23 05:18:16;;;;;;;;;;;4.40;99.90;;;;;;5035470;28;20341;-81
2023/12/23 05:20:42;;;;;;;;;;;4.40;99.90;;;;;;5037369;28;19931;-81
2023/12/23 05:23:07;;;;;;;;;;;4.30;99.90;;;;;;5035296;28;19928;-81
2023/12/23 05:25:33;;;;;;;;;;;4.40;99.90;;;;;;5043347;28;19974;-81
2023/12/23 05:27:59;;;;;;;;;;;4.30;99.90;;;;;;5002451;28;19993;-81
2023/12/23 05:30:25;;;;;;;;;;;4.30;99.90;;;;;;5021022;28;19925;-81
2023/12/23 05:32:50;;;;;;;;;;;4.30;99.90;;;;;;5020951;28;19920;-81
2023/12/23 05:35:16;;;;;;;;;;;4.40;99.90;;;;;;5037499;28;19925;-81
2023/12/23 05:37:41;;;;;;;;;;;4.40;99.90;;;;;;5020667;28;19928;-81
2023/12/23 05:40:07;;;;;;;;;;;;;;;;;;5022740;28;19981;-80
2023/12/23 05:42:34;;;;;;;;;;;4.40;99.90;;;;;;5048540;28;19974;-81
2023/12/23 05:44:59;;;;;;;;;;;4.30;99.90;;;;;;5020571;28;20445;-81
2023/12/23 05:47:25;;;;;;;;;;;4.20;99.90;;;;;;5020459;28;19971;-81
2023/12/23 05:49:51;;;;;;;;;;;4.60;99.90;;;;;;5037232;28;19924;-81
2023/12/23 05:52:16;;;;;;;;;;;4.30;99.90;;;;;;5019898;28;19978;-81
2023/12/23 05:54:42;;;;;;;;;;;4.40;99.90;;;;;;5027645;28;19924;-81
2023/12/23 05:57:08;;;;;;;;;;;4.30;99.90;;;;;;5032737;28;19929;-81
2023/12/23 05:59:33;;;;;;;;;;;4.30;99.90;;;;;;5052157;28;19925;-81
2023/12/23 06:01:59;;;;;;;;;;;4.30;99.90;;;;;;5019555;28;19967;-81
2023/12/23 06:04:25;;;;;;;;;;;4.30;99.90;;;;;;5019642;28;20373;-81
2023/12/23 06:06:50;;;;;;;;;;;4.40;99.90;;;;;;5020030;28;19920;-81
2023/12/23 06:09:16;;;;;;;;;;;4.30;99.90;;;;;;5017124;28;19925;-82
2023/12/23 06:11:41;;;;;;;;;;;4.40;99.90;;;;;;5017159;28;20506;-81
2023/12/23 06:14:07;;;;;;;;;;;4.40;99.90;;;;;;5011705;28;19994;-81
2023/12/23 06:16:37;;;;;;;;;;;4.40;99.90;;;;;;5019996;28;19944;-82
2023/12/23 06:19:03;;;;;;;;;;;4.40;99.90;;;;;;5024553;28;19924;-82
2023/12/23 06:21:28;;;;;;;;;;;3.50;99.90;;;;;;5036846;28;19924;-81
2023/12/23 06:23:54;;;;;;;;;;;4.40;99.90;;;;;;5029165;28;20008;-82
2023/12/23 06:26:19;;;;;;;;;;;4.30;99.90;;;;;;5015074;28;19948;-81
2023/12/23 06:28:45;;;;;;;;;;;4.30;99.90;;;;;;5020160;28;19920;-82
2023/12/23 06:31:11;;;;;;;;;;;4.40;99.90;;;;;;5019923;28;19927;-81
2023/12/23 06:33:36;;;;;;;;;;;4.30;99.90;;;;;;5035772;28;19997;-82
2023/12/23 06:36:02;;;;;;;;;;;4.30;99.90;;;;;;5021074;28;19990;-82
2023/12/23 06:38:28;;;;;;;;;;;4.40;99.90;;;;;;5035645;28;19950;-81
2023/12/23 06:40:54;;;;;;;;;;;4.40;99.90;;;;;;5020369;28;19929;-82
2023/12/23 06:43:20;;;;;;;;;;;4.30;99.90;;;;;;5040862;28;20074;-82
2023/12/23 06:45:45;;;;;;;;;;;4.40;99.90;;;;;;5037793;28;20002;-82
2023/12/23 06:48:11;;;;;;;;;;;4.40;99.90;;;;;;5027320;28;19920;-82
2023/12/23 06:50:37;;;;;;;;;;;4.30;99.90;;;;;;5035251;28;19931;-82
2023/12/23 06:53:02;;;;;;;;;;;4.40;99.90;;;;;;5033805;28;19924;-81
2023/12/23 06:55:28;;;;;;;;;;;4.30;99.90;;;;;;5006135;28;19921;-82
2023/12/23 06:57:54;;;;;;;;;;;4.40;99.90;;;;;;5020388;28;19943;-82
2023/12/23 07:00:20;;;;;;;;;;;4.40;99.90;;;;;;5040120;28;19931;-81
2023/12/23 07:02:46;;;;;;;;;;;4.40;99.90;;;;;;5031949;28;20405;-82
2023/12/23 07:05:11;;;;;;;;;;;4.40;99.90;;;;;;5053052;28;19920;-81
2023/12/23 07:07:37;;;;;;;;;;;4.40;99.90;;;;;;5050144;28;19921;-82
2023/12/23 07:10:03;;;;;;;;;;;4.30;99.90;;;;;;5054228;28;19971;-82
2023/12/23 07:12:29;;;;;;;;;;;4.30;99.90;;;;;;5034554;28;20293;-81
2023/12/23 07:14:54;;;;;;;;;;;4.30;99.90;;;;;;5051186;28;20007;-82
2023/12/23 07:17:20;;;;;;;;;;;4.40;99.90;;;;;;5015299;28;19933;-82
2023/12/23 07:19:45;;;;;;;;;;;4.40;99.90;;;;;;5018008;28;19921;-81
2023/12/23 07:22:11;;;;;;;;;;;4.30;99.90;;;;;;5030010;28;19921;-82
2023/12/23 07:24:38;;;;;;;;;;;4.20;99.90;;;;;;5044473;28;19921;-81
2023/12/23 07:27:04;;;;;;;;;;;4.30;99.90;;;;;;5040186;28;20380;-82
2023/12/23 07:29:30;;;;;;;;;;;4.30;99.90;;;;;;5035011;28;20011;-82
2023/12/23 07:31:55;;;;;;;;;;;4.10;99.90;;;;;;5034919;28;19920;-82
2023/12/23 07:34:21;;;;;;;;;;;4.30;99.90;;;;;;5027490;28;19920;-82
2023/12/23 07:36:46;;;;;;;;;;;4.20;99.90;;;;;;5047425;28;19925;-82
2023/12/23 07:39:14;;;;;;;;;;;4.30;99.90;;;;;;5034519;28;20019;-82
2023/12/23 07:41:39;;;;;;;;;;;4.20;99.90;;;;;;5034769;28;19928;-82
2023/12/23 07:44:05;;;;;;;;;;;4.40;99.90;;;;;;5033554;28;19939;-82
2023/12/23 07:46:30;;;;;;;;;;;4.30;99.90;;;;;;5050267;28;19920;-82
2023/12/23 07:48:56;;;;;;;;;;;4.40;99.90;;;;;;5034624;28;19932;-82
2023/12/23 07:51:22;;;;;;;;;;;4.30;99.90;;;;;;5019305;28;20079;-82
2023/12/23 07:53:47;;;;;;;;;;;4.30;99.90;;;;;;5017915;28;19978;-82
2023/12/23 07:56:13;;;;;;;;;;;4.20;99.90;;;;;;5018370;28;19936;-82
2023/12/23 07:58:38;;;;;;;;;;;4.40;99.90;;;;;;5043860;28;19935;-82
2023/12/23 08:01:04;;;;;;;;;;;4.40;99.90;;;;;;5034720;28;20272;-82
2023/12/23 08:03:29;;;;;;;;;;;4.30;99.90;;;;;;5011623;28;20402;-82
2023/12/23 08:05:55;;;;;;;;;;;4.40;99.90;;;;;;5051198;28;19928;-82
2023/12/23 08:08:20;;;;;;;;;;;4.40;99.90;;;;;;5050237;28;19978;-82
2023/12/23 08:10:46;;;;;;;;;;;4.40;99.90;;;;;;5012185;28;20498;-82
2023/12/23 08:13:12;;;;;;;;;;;4.30;99.90;;;;;;5009718;28;19934;-82
2023/12/23 08:15:37;;;;;;;;;;;4.40;99.90;;;;;;5015556;28;19920;-82
2023/12/23 08:18:03;;;;;;;;;;;4.40;99.90;;;;;;5023157;28;19978;-83
2023/12/23 08:20:29;;;;;;;;;;;4.30;99.90;;;;;;5030953;28;19937;-82
2023/12/23 08:22:55;;;;;;;;;;;4.30;99.90;;;;;;5017453;28;19921;-82
2023/12/23 08:25:20;;;;;;;;;;;4.50;99.90;;;;;;5022746;28;19928;-82
2023/12/23 08:27:46;;;;;;;;;;;4.40;99.90;;;;;;5028445;28;19975;-82
2023/12/23 08:30:11;;;;;;;;;;;4.30;99.90;;;;;;5029954;28;20566;-82
2023/12/23 08:32:37;;;;;;;;;;;4.40;99.90;;;;;;5016325;28;20365;-82
2023/12/23 08:35:03;;;;;;;;;;;4.40;99.90;;;;;;5028006;28;19932;-83
2023/12/23 08:37:28;;;;;;;;;;;4.40;99.90;;;;;;5047217;28;20308;-82
2023/12/23 08:39:54;;;;;;;;;;;4.40;99.90;;;;;;5011563;28;19921;-82
2023/12/23 08:42:20;;;;;;;;;;;4.60;99.90;;;;;;5008223;28;19925;-82
2023/12/23 08:44:46;;;;;;;;;;;4.50;99.90;;;;;;5016337;28;19982;-83
2023/12/23 08:47:12;;;;;;;;;;;4.40;99.90;;;;;;5043289;28;19921;-83
2023/12/23 08:49:39;;;;;;;;;;;4.40;99.90;;;;;;5024976;28;20439;-84
2023/12/23 08:52:05;;;;;;;;;;;4.50;99.90;;;;;;5020017;28;20210;-83
2023/12/23 08:54:31;;;;;;;;;;;4.40;99.90;;;;;;5019468;28;19920;-84
2023/12/23 08:56:56;;;;;;;;;;;4.50;99.90;;;;;;5019584;28;19979;-83
2023/12/23 08:59:22;;;;;;;;;;;4.40;99.90;;;;;;5040769;28;19936;-85
2023/12/23 09:01:47;;;;;;;;;;;4.50;99.90;;;;;;5043363;28;19924;-85
2023/12/23 09:04:13;;;;;;;;;;;4.60;99.90;;;;;;5039779;28;19946;-85
2023/12/23 09:06:39;;;;;;;;;;;5.30;99.90;;;;;;5029545;28;19936;-85
2023/12/23 09:09:05;;;;;;;;;;;;;;;;;;5061768;28;20016;-86
2023/12/23 09:11:30;;;;;;;;;;;4.60;99.90;;;;;;5027615;28;20095;-86
2023/12/23 09:13:56;;;;;;;;;;;4.60;99.90;;;;;;5059657;28;20008;-86
2023/12/23 09:16:22;;;;;;;;;;;4.70;99.90;;;;;;5035785;28;19920;-86
2023/12/23 09:18:47;;;;;;;;;;;4.70;99.90;;;;;;5058930;28;19924;-86
2023/12/23 09:21:13;;;;;;;;;;;4.60;99.90;;;;;;5045580;28;19936;-85
2023/12/23 09:23:38;;;;;;;;;;;4.70;99.90;;;;;;5064753;28;19935;-85
2023/12/23 09:26:04;;;;;;;;;;;4.70;99.90;;;;;;5046566;28;19939;-85
2023/12/23 09:28:30;;;;;;;;;;;4.60;99.90;;;;;;5044055;28;19932;-84
2023/12/23 09:30:55;;;;;;;;;;;4.60;99.90;;;;;;5053941;28;20014;-85
2023/12/23 09:33:21;;;;;;;;;;;4.70;99.90;;;;;;5049381;28;19921;-85
2023/12/23 09:35:46;;;;;;;;;;;4.70;99.90;;;;;;5065552;28;20329;-86
2023/12/23 09:38:12;;;;;;;;;;;4.70;99.90;;;;;;5037570;28;19947;-86
2023/12/23 09:40:38;;;;;;;;;;;4.00;99.90;;;;;;5036775;28;20219;-85
2023/12/23 09:43:05;;;;;;;;;;;4.70;99.90;;;;;;5033825;28;20015;-85
2023/12/23 09:45:32;;;;;;;;;;;4.90;99.90;;;;;;5066102;28;19932;-85
2023/12/23 09:47:58;;;;;;;;;;;4.80;99.90;;;;;;5051604;28;19921;-85
2023/12/23 09:50:23;;;;;;;;;;;4.80;99.90;;;;;;5030226;28;19978;-85
2023/12/23 09:52:52;;;;;;;;;;;4.90;99.90;;;;;;5062107;28;19925;-85
2023/12/23 09:55:18;;;;;;;;;;;4.10;99.90;;;;;;5033692;28;19989;-85
2023/12/23 09:57:44;;;;;;;;;;;4.90;99.90;;;;;;5064632;28;19928;-84
2023/12/23 10:00:10;;;;;;;;;;;5.00;99.90;;;;;;5054444;28;19920;-85
2023/12/23 10:02:36;;;;;;;;;;;4.90;99.90;;;;;;5032420;28;20245;-86
2023/12/23 10:05:02;;;;;;;;;;;5.00;99.90;;;;;;5065302;28;19928;-85
2023/12/23 10:07:28;;;;;;;;;;;5.00;99.90;;;;;;5060049;28;19985;-85
2023/12/23 10:09:53;;;;;;;;;;;5.00;99.90;;;;;;5054780;28;19936;-86
2023/12/23 10:12:20;;;;;;;;;;;5.00;99.90;;;;;;5070284;28;19928;-85
2023/12/23 10:14:47;;;;;;;;;;;5.00;99.90;;;;;;5053716;28;19928;-85
2023/12/23 10:17:15;;;;;;;;;;;5.00;99.90;;;;;;5066206;28;19924;-85
2023/12/23 10:19:41;;;;;;;;;;;4.90;99.90;;;;;;5036555;28;19924;-85
2023/12/23 10:22:09;;;;;;;;;;;5.00;99.90;;;;;;5048316;28;20337;-84
2023/12/23 10:24:41;;;;;;;;;;;5.10;99.90;;;;;;5047806;28;20014;-84
2023/12/23 10:27:16;;;;;;;;;;;4.90;99.90;;;;;;5051874;28;20055;-85
2023/12/23 10:29:49;;;;;;;;;;;5.10;99.90;;;;;;5088269;28;20011;-85
2023/12/23 10:32:24;;;;;;;;;;;5.20;99.90;;;;;;5055648;28;20374;-84
2023/12/23 10:35:19;;;;;;;;;;;5.10;99.90;;;;;;5091078;28;20241;-84
2023/12/23 10:37:54;;;;;;;;;;;5.20;99.90;;;;;;5050874;28;19920;-84
2023/12/23 10:40:23;;;;;;;;;;;5.20;99.90;;;;;;5054164;28;20414;-84
2023/12/23 10:43:08;;;;;;;;;;;5.50;99.90;;;;;;5059215;28;19932;-82
2023/12/23 10:48:57;;;;;;;;;;;5.30;99.90;;;;;;5056852;28;19927;-83
2023/12/23 10:51:23;;;;;;;;;;;5.30;99.90;;;;;;5029989;28;19932;-85
2023/12/23 10:53:51;;;;;;;;;;;5.20;99.90;;;;;;5058873;28;19950;-85
2023/12/23 10:56:17;;;;;;;;;;;5.40;99.90;;;;;;5048107;28;19935;-83
2023/12/23 10:58:43;;;;;;;;;;;5.40;99.90;;;;;;5034559;28;20073;-84
2023/12/23 11:01:11;;;;;;;;;;;5.50;99.90;;;;;;5065156;28;20373;-84
2023/12/23 11:03:37;;;;;;;;;;;5.30;99.90;;;;;;5051198;28;20482;-84
2023/12/23 11:06:04;;;;;;;;;;;4.00;99.90;;;;;;5039264;28;19924;-84
2023/12/23 11:08:32;;;;;;;;;;;5.30;99.90;;;;;;5051224;28;19966;-84
2023/12/23 11:10:58;;;;;;;;;;;5.30;99.90;;;;;;5067053;28;19934;-84
2023/12/23 11:13:25;;;;;;;;;;;5.40;99.90;;;;;;5045197;28;20256;-83
2023/12/23 11:15:52;;;;;;;;;;;5.50;99.90;;;;;;5051546;28;19978;-85
2023/12/23 11:18:17;;;;;;;;;;;5.30;99.90;;;;;;5065736;28;19931;-85
2023/12/23 11:20:44;;;;;;;;;;;5.40;99.90;;;;;;5038192;28;19920;-84
2023/12/23 11:23:29;;;;;;;;;;;4.30;99.90;;;;;;5063919;28;19942;-84
2023/12/23 11:25:54;;;;;;;;;;;5.40;99.90;;;;;;5050653;28;20272;-84
2023/12/23 11:28:20;;;;;;;;;;;5.40;99.90;;;;;;5083612;28;19956;-84
2023/12/23 11:30:50;;;;;;;;;;;5.40;99.90;;;;;;5042169;28;19924;-84
2023/12/23 11:33:36;;;;;;;;;;;5.40;99.90;;;;;;5046193;28;19924;-84
2023/12/23 11:36:02;;;;;;;;;;;5.30;99.90;;;;;;5096752;28;19920;-84
2023/12/23 11:38:28;;;;;;;;;;;5.40;99.90;;;;;;5060099;28;19924;-84
2023/12/23 11:40:54;;;;;;;;;;;5.40;99.90;;;;;;5044860;28;19924;-84
2023/12/23 11:43:52;;;;;;;;;;;5.50;99.90;;;;;;5078061;28;19920;-85
2023/12/23 11:53:09;;;;;;;;;;;4.90;99.90;;;;;;4950458;28;19934;-87
2023/12/23 11:55:36;;;;;;;;;;;5.50;99.90;;;;;;5014204;28;19928;-87
2023/12/23 11:58:01;;;;;;;;;;;5.50;99.90;;;;;;5040699;28;19924;-86
2023/12/23 12:00:31;;;;;;;;;;;5.60;99.90;;;;;;5053460;28;19921;-82
2023/12/23 12:02:59;;;;;;;;;;;5.60;99.90;;;;;;5054096;28;19920;-82
2023/12/23 12:05:28;;;;;;;;;;;5.70;99.90;;;;;;5042580;28;19925;-83
2023/12/23 12:07:54;;;;;;;;;;;5.70;99.90;;;;;;5034027;28;19925;-87
2023/12/23 12:10:19;;;;;;;;;;;5.80;99.90;;;;;;5041718;28;21132;-85
2023/12/23 12:12:45;;;;;;;;;;;5.70;99.90;;;;;;5041783;28;20011;-86
2023/12/23 12:15:11;;;;;;;;;;;5.70;99.90;;;;;;5048766;28;19920;-85
2023/12/23 12:17:36;;;;;;;;;;;5.70;99.90;;;;;;5031578;28;19921;-84
2023/12/23 12:20:02;;;;;;;;;;;5.70;99.90;;;;;;5050062;28;19981;-85
2023/12/23 12:22:28;;;;;;;;;;;5.70;99.90;;;;;;5019035;28;19928;-85
2023/12/23 12:24:54;;;;;;;;;;;5.70;99.90;;;;;;5028665;28;19928;-85
2023/12/23 12:27:19;;;;;;;;;;;5.80;99.90;;;;;;5062849;28;20424;-85
2023/12/23 12:29:45;;;;;;;;;;;5.80;99.90;;;;;;5033877;28;19932;-85
2023/12/23 12:32:13;;;;;;;;;;;5.20;99.90;;;;;;5039314;28;20035;-85
2023/12/23 12:34:38;;;;;;;;;;;5.70;99.90;;;;;;5053890;28;20265;-86
2023/12/23 12:37:04;;;;;;;;;;;5.60;99.90;;;;;;5034788;28;19924;-86
2023/12/23 12:39:30;;;;;;;;;;;5.50;99.90;;;;;;5067556;28;19919;-86
2023/12/23 12:41:55;;;;;;;;;;;5.60;99.90;;;;;;5048758;28;20307;-86
2023/12/23 12:44:21;;;;;;;;;;;5.70;99.90;;;;;;5047534;28;19920;-87
2023/12/23 12:46:56;;;;;;;;;;;5.70;99.90;;;;;;5036444;28;20333;-92
2023/12/23 12:49:25;;;;;;;;;;;5.60;99.90;;;;;;5051125;28;20081;-89
2023/12/23 12:51:51;;;;;;;;;;;5.80;99.90;;;;;;5043619;28;19928;-88
2023/12/23 12:54:18;;;;;;;;;;;5.70;99.90;;;;;;5046625;28;19920;-87
2023/12/23 12:56:45;;;;;;;;;;;5.60;99.90;;;;;;5042794;28;20512;-85
2023/12/23 12:59:10;;;;;;;;;;;5.70;99.90;;;;;;5035951;28;20366;-86
2023/12/23 13:01:36;;;;;;;;;;;5.60;99.90;;;;;;5056116;28;20009;-86
2023/12/23 13:04:02;;;;;;;;;;;4.50;99.90;;;;;;5058569;28;19920;-87
2023/12/23 13:06:27;;;;;;;;;;;5.60;99.90;;;;;;5059191;28;19924;-87
2023/12/23 13:08:53;;;;;;;;;;;5.70;99.90;;;;;;5049293;28;19967;-86
2023/12/23 13:11:19;;;;;;;;;;;5.70;99.90;;;;;;5044126;28;20015;-86
2023/12/23 13:13:44;;;;;;;;;;;5.60;99.90;;;;;;5040002;28;20381;-87
2023/12/23 13:16:11;;;;;;;;;;;5.70;99.90;;;;;;5034483;28;19920;-87
2023/12/23 13:18:36;;;;;;;;;;;5.70;99.90;;;;;;5035702;28;19927;-86
2023/12/23 13:21:02;;;;;;;;;;;5.80;99.90;;;;;;5048116;28;19936;-86
2023/12/23 13:23:28;;;;;;;;;;;5.90;99.90;;;;;;5059610;28;19960;-86
2023/12/23 13:25:54;;;;;;;;;;;5.90;99.90;;;;;;5060308;28;19924;-86
2023/12/23 13:28:20;;;;;;;;;;;5.80;99.90;;;;;;5052417;28;20379;-86
2023/12/23 13:30:45;;;;;;;;;;;5.80;99.90;;;;;;5053925;28;19924;-87
2023/12/23 13:33:11;;;;;;;;;;;5.90;99.90;;;;;;5036171;28;19920;-87
2023/12/23 13:35:37;;;;;;;;;;;5.90;99.90;;;;;;5042281;28;20245;-86
2023/12/23 13:38:03;;;;;;;;;;;6.00;99.90;;;;;;5042179;28;20015;-86
2023/12/23 13:40:29;;;;;;;;;;;;;;;;;;5039941;28;20038;-87
2023/12/23 13:42:55;;;;;;;;;;;5.90;99.90;;;;;;5053218;28;19924;-87
2023/12/23 13:45:20;;;;;;;;;;;5.90;99.90;;;;;;5047275;28;19920;-86
2023/12/23 13:47:46;;;;;;;;;;;5.90;99.90;;;;;;5056103;28;19919;-86
2023/12/23 13:50:13;;;;;;;;;;;6.00;99.90;;;;;;5033936;28;19928;-87
2023/12/23 13:52:41;;;;;;;;;;;5.90;99.90;;;;;;5055507;28;19967;-86
2023/12/23 13:55:07;;;;;;;;;;;6.00;99.90;;;;;;5060088;28;19924;-86
2023/12/23 13:57:33;;;;;;;;;;;6.00;99.90;;;;;;5042419;28;20011;-87
2023/12/23 13:59:59;;;;;;;;;;;6.00;99.90;;;;;;5053071;28;19966;-87
2023/12/23 14:02:25;;;;;;;;;;;6.00;99.90;;;;;;5067470;28;20119;-86
2023/12/23 14:04:50;;;;;;;;;;;6.00;99.90;;;;;;5043770;28;19920;-86
2023/12/23 14:07:16;;;;;;;;;;;6.00;99.90;;;;;;5039717;28;20326;-87
2023/12/23 14:09:42;;;;;;;;;;;6.00;99.90;;;;;;5062286;28;19973;-86
2023/12/23 14:12:08;;;;;;;;;;;6.10;99.90;;;;;;5078047;28;19946;-87
2023/12/23 14:14:34;;;;;;;;;;;6.00;99.90;;;;;;5049721;28;19925;-87
2023/12/23 14:17:00;;;;;;;;;;;6.20;99.90;;;;;;5076547;28;19999;-85
2023/12/23 14:19:25;;;;;;;;;;;6.10;99.90;;;;;;5047360;28;20233;-87
2023/12/23 14:21:51;;;;;;;;;;;6.10;99.90;;;;;;5055612;28;19974;-87
2023/12/23 14:24:17;;;;;;;;;;;;;;;;;;5045838;28;19920;-86
2023/12/23 14:26:43;;;;;;;;;;;;;;;;;;5060639;28;19924;-84
2023/12/23 14:29:09;;;;;;;;;;;;;;;;;;5052760;28;20006;-84
2023/12/23 14:31:36;;;;;;;;;;;;;;;;;;5051247;28;19928;-84
2023/12/23 14:34:02;;;;;;;;;;;;;;;;;;5053102;28;19920;-87
2023/12/23 14:36:31;;;;;;;;;;;;;;;;;;5048716;28;20057;-87
2023/12/23 14:38:57;;;;;;;;;;;;;;;;;;5061831;28;19932;-87